Cosco Nagoya — 3ESJ8 — position and weather

sailwx.info

Track history (hours):
 
Tides and Currents Weather Stations Pressure Air Temp Water Temp Dewpoint Dewpoint Depression Visibility Wind Speed Wind Dir Waves Ship Positions

Cosco Nagoya

Last reported at 2015-Jul-28 14:20 UTC. Time now 2015-Jul-30 10:09 UTC.
Position N 35°04' W 074°55'.

Length 260 m; draft 10.8 m.

Type: Cargo ship. MMSI: 370320000.

Date/timePositionNaut miles runAvg speedWind from/ knotsBaromVisibWave heightAir tempDewpointWater temp
2015-Jul-28 14:20N 35°04' W 074°55'114 3.7
2015-Jul-27 07:20N 36°50' W 075°47'1111.2
2015-Jul-27 06:21N 36°46' W 075°34'1114.2
2015-Jul-27 05:33N 36°46' W 075°20'1414.5
2015-Jul-27 04:33N 36°49' W 075°02'1514.5
2015-Jul-27 03:33N 36°52' W 074°45'37710.2
2015-Jul-25 14:30N 42°20' W 070°43'13 0.8
2015-Jul-24 21:05N 42°21' W 071°01'3 5.5
2015-Jul-24 20:32N 42°20' W 070°57'9 8.9
2015-Jul-24 19:33N 42°23' W 070°46'7610.4
2015-Jul-24 12:16N 41°34' W 069°27'6 7.8
2015-Jul-24 11:32N 41°29' W 069°24'16 7.7
2015-Jul-24 09:30N 41°15' W 069°16'8 8.4
2015-Jul-24 08:30N 41°07' W 069°11'8 8.9
2015-Jul-24 07:33N 40°60' W 069°06'1616.4
2015-Jul-24 06:34N 40°45' W 068°57'1515.4
2015-Jul-24 05:33N 40°31' W 069°06'1515.1
2015-Jul-24 04:33N 40°26' W 069°24'1615.7
2015-Jul-24 03:34N 40°26' W 069°45'1616.1
2015-Jul-24 02:34N 40°25' W 070°06'1616.3
2015-Jul-24 01:33N 40°25' W 070°28'1716.8
2015-Jul-24 00:33N 40°24' W 070°50'1716.9
2015-Jul-23 23:33N 40°24' W 071°12'1716.9
2015-Jul-23 22:34N 40°23' W 071°34'1716.9
2015-Jul-23 21:34N 40°23' W 071°56'1716.9
2015-Jul-23 20:34N 40°23' W 072°18'1716.9
2015-Jul-23 19:33N 40°23' W 072°40'1716.8
2015-Jul-23 18:34N 40°22' W 073°03'1716.6
2015-Jul-23 17:34N 40°23' W 073°24'1716.7
2015-Jul-23 16:34N 40°26' W 073°46'1514.5
2015-Jul-23 15:34N 40°34' W 074°02'8 7.5
2015-Jul-23 14:33N 40°40' W 074°09'1 1.0
2015-Jul-23 13:33N 40°41' W 074°08'0 0.0
2015-Jul-23 12:33N 40°41' W 074°08'0 0.0
2015-Jul-23 11:33N 40°41' W 074°08'0 0.0
2015-Jul-23 10:33N 40°41' W 074°08'0 0.0
2015-Jul-23 09:33N 40°41' W 074°08'0 0.0
2015-Jul-23 08:33N 40°41' W 074°08'0 0.0
2015-Jul-23 07:33N 40°41' W 074°08'0 0.0
2015-Jul-23 06:33N 40°41' W 074°08'0 0.0
2015-Jul-23 05:33N 40°41' W 074°08'0 0.0
2015-Jul-23 04:33N 40°41' W 074°08'0 0.0
2015-Jul-23 03:33N 40°41' W 074°08'0 0.0
2015-Jul-23 02:33N 40°41' W 074°08'0 0.0
2015-Jul-23 01:33N 40°41' W 074°08'0 0.0
2015-Jul-23 00:33N 40°41' W 074°08'0 0.0
2015-Jul-22 23:33N 40°41' W 074°08'0 0.0
2015-Jul-22 22:33N 40°41' W 074°08'0 0.0
2015-Jul-22 21:30N 40°41' W 074°08'0 0.0
2015-Jul-22 20:33N 40°41' W 074°08'0 0.0
2015-Jul-22 19:33N 40°41' W 074°08'0 0.0
2015-Jul-22 18:33N 40°41' W 074°08'0 0.0
2015-Jul-22 17:33N 40°41' W 074°08'0 0.0
2015-Jul-22 16:33N 40°41' W 074°08'0 0.1
2015-Jul-22 15:34N 40°41' W 074°08'4 3.7
2015-Jul-22 14:33N 40°39' W 074°04'1111.2
2015-Jul-22 13:33N 40°30' W 073°56'1010.0
2015-Jul-22 12:33N 40°22' W 073°47'1111.2
2015-Jul-22 11:33N 40°11' W 073°45'1717.4
2015-Jul-22 10:34N 39°54' W 073°42'1717.3
2015-Jul-22 09:33N 39°37' W 073°40'1616.4
2015-Jul-22 08:33N 39°21' W 073°40'1716.6
2015-Jul-22 07:34N 39°04' W 073°41'1616.3
2015-Jul-22 06:33N 38°48' W 073°41'1716.5
2015-Jul-22 05:34N 38°31' W 073°39'1717.2
2015-Jul-22 04:33N 38°14' W 073°39'1817.0
2015-Jul-22 03:31N 37°56' W 073°39'  
Track history (hours):
 
Tides and Currents Weather Stations Pressure Air Temp Water Temp Dewpoint Dewpoint Depression Visibility Wind Speed Wind Dir Waves Ship Positions

Cosco Nagoya

Last reported at 2015-Jul-28 14:20 UTC. Time now 2015-Jul-30 10:09 UTC.
Position N 35°04' W 074°55'.

Length 260 m; draft 10.8 m.

Type: Cargo ship. MMSI: 370320000.

Date/timePositionNaut miles runAvg speedWind from/ knotsBaromVisibWave heightAir tempDewpointWater temp
2015-Jul-28 14:20N 35°04' W 074°55'114 3.7
2015-Jul-27 07:20N 36°50' W 075°47'1111.2
2015-Jul-27 06:21N 36°46' W 075°34'1114.2
2015-Jul-27 05:33N 36°46' W 075°20'1414.5
2015-Jul-27 04:33N 36°49' W 075°02'1514.5
2015-Jul-27 03:33N 36°52' W 074°45'37710.2
2015-Jul-25 14:30N 42°20' W 070°43'13 0.8
2015-Jul-24 21:05N 42°21' W 071°01'3 5.5
2015-Jul-24 20:32N 42°20' W 070°57'9 8.9
2015-Jul-24 19:33N 42°23' W 070°46'7610.4
2015-Jul-24 12:16N 41°34' W 069°27'6 7.8
2015-Jul-24 11:32N 41°29' W 069°24'16 7.7
2015-Jul-24 09:30N 41°15' W 069°16'8 8.4
2015-Jul-24 08:30N 41°07' W 069°11'8 8.9
2015-Jul-24 07:33N 40°60' W 069°06'1616.4
2015-Jul-24 06:34N 40°45' W 068°57'1515.4
2015-Jul-24 05:33N 40°31' W 069°06'1515.1
2015-Jul-24 04:33N 40°26' W 069°24'1615.7
2015-Jul-24 03:34N 40°26' W 069°45'1616.1
2015-Jul-24 02:34N 40°25' W 070°06'1616.3
2015-Jul-24 01:33N 40°25' W 070°28'1716.8
2015-Jul-24 00:33N 40°24' W 070°50'1716.9
2015-Jul-23 23:33N 40°24' W 071°12'1716.9
2015-Jul-23 22:34N 40°23' W 071°34'1716.9
2015-Jul-23 21:34N 40°23' W 071°56'1716.9
2015-Jul-23 20:34N 40°23' W 072°18'1716.9
2015-Jul-23 19:33N 40°23' W 072°40'1716.8
2015-Jul-23 18:34N 40°22' W 073°03'1716.6
2015-Jul-23 17:34N 40°23' W 073°24'1716.7
2015-Jul-23 16:34N 40°26' W 073°46'1514.5
2015-Jul-23 15:34N 40°34' W 074°02'8 7.5
2015-Jul-23 14:33N 40°40' W 074°09'1 1.0
2015-Jul-23 13:33N 40°41' W 074°08'0 0.0
2015-Jul-23 12:33N 40°41' W 074°08'0 0.0
2015-Jul-23 11:33N 40°41' W 074°08'0 0.0
2015-Jul-23 10:33N 40°41' W 074°08'0 0.0
2015-Jul-23 09:33N 40°41' W 074°08'0 0.0
2015-Jul-23 08:33N 40°41' W 074°08'0 0.0
2015-Jul-23 07:33N 40°41' W 074°08'0 0.0
2015-Jul-23 06:33N 40°41' W 074°08'0 0.0
2015-Jul-23 05:33N 40°41' W 074°08'0 0.0
2015-Jul-23 04:33N 40°41' W 074°08'0 0.0
2015-Jul-23 03:33N 40°41' W 074°08'0 0.0
2015-Jul-23 02:33N 40°41' W 074°08'0 0.0
2015-Jul-23 01:33N 40°41' W 074°08'0 0.0
2015-Jul-23 00:33N 40°41' W 074°08'0 0.0
2015-Jul-22 23:33N 40°41' W 074°08'0 0.0
2015-Jul-22 22:33N 40°41' W 074°08'0 0.0
2015-Jul-22 21:30N 40°41' W 074°08'0 0.0
2015-Jul-22 20:33N 40°41' W 074°08'0 0.0
2015-Jul-22 19:33N 40°41' W 074°08'0 0.0
2015-Jul-22 18:33N 40°41' W 074°08'0 0.0
2015-Jul-22 17:33N 40°41' W 074°08'0 0.0
2015-Jul-22 16:33N 40°41' W 074°08'0 0.1
2015-Jul-22 15:34N 40°41' W 074°08'4 3.7
2015-Jul-22 14:33N 40°39' W 074°04'1111.2
2015-Jul-22 13:33N 40°30' W 073°56'1010.0
2015-Jul-22 12:33N 40°22' W 073°47'1111.2
2015-Jul-22 11:33N 40°11' W 073°45'1717.4
2015-Jul-22 10:34N 39°54' W 073°42'1717.3
2015-Jul-22 09:33N 39°37' W 073°40'1616.4
2015-Jul-22 08:33N 39°21' W 073°40'1716.6
2015-Jul-22 07:34N 39°04' W 073°41'1616.3
2015-Jul-22 06:33N 38°48' W 073°41'1716.5
2015-Jul-22 05:34N 38°31' W 073°39'1717.2
2015-Jul-22 04:33N 38°14' W 073°39'1817.0
2015-Jul-22 03:31N 37°56' W 073°39'  

Dump ship's entire track history